Time;durP1;ratioP1;P1;durP2;ratioP2;P2;SDS_P1;SDS_P2;PMS_P1;PMS_P2;Temp;Humidity;BMP_temperature;BMP_pressure;BME280_temperature;BME280_humidity;BME280_pressure;Samples;Min_cycle;Max_cycle;Signal;HPM_P1;HPM_P2
2019/11/05 00:00:57;;;;;;;0.95;0.95;;;;;;;10.03;83.90527;93521.26;;;;
2019/11/05 00:01:58;;;;;;;0.95;0.95;;;;;;;10.03;83.90527;93521.26;;;;
2019/11/05 00:03:00;;;;;;;0.95;0.95;;;;;;;10.03;83.90527;93521.26;;;;
2019/11/05 00:04:01;;;;;;;0.95;0.95;;;;;;;10.03;83.90527;93521.26;;;;
2019/11/05 00:05:02;;;;;;;0.95;0.95;;;;;;;10.03;83.90527;93521.26;;;;
2019/11/05 00:06:03;;;;;;;0.95;0.95;;;;;;;10.03;83.90527;93521.26;;;;
2019/11/05 00:07:04;;;;;;;0.95;0.95;;;;;;;10.03;83.90527;93521.26;;;;
2019/11/05 00:08:05;;;;;;;0.95;0.95;;;;;;;10.03;83.90527;93521.26;;;;
2019/11/05 00:09:07;;;;;;;0.95;0.95;;;;;;;10.03;83.90527;93521.26;;;;
2019/11/05 00:10:08;;;;;;;0.95;0.95;;;;;;;10.03;83.90527;93521.26;;;;
2019/11/05 00:11:09;;;;;;;0.8;0.8;;;;;;;9.96;84.04004;93544.08;;;;
2019/11/05 00:12:10;;;;;;;0.8;0.8;;;;;;;9.96;84.04004;93544.08;;;;
2019/11/05 00:13:11;;;;;;;0.8;0.8;;;;;;;9.96;84.04004;93544.08;;;;
2019/11/05 00:14:12;;;;;;;0.8;0.8;;;;;;;9.96;84.04004;93544.08;;;;
2019/11/05 00:15:14;;;;;;;0.8;0.8;;;;;;;9.96;84.04004;93544.08;;;;
2019/11/05 00:16:15;;;;;;;0.8;0.8;;;;;;;9.96;84.04004;93544.08;;;;
2019/11/05 00:17:16;;;;;;;0.8;0.8;;;;;;;9.96;84.04004;93544.08;;;;
2019/11/05 00:18:17;;;;;;;0.8;0.8;;;;;;;9.96;84.04004;93544.08;;;;
2019/11/05 00:19:18;;;;;;;0.8;0.8;;;;;;;9.96;84.04004;93544.08;;;;
2019/11/05 00:20:19;;;;;;;0.8;0.8;;;;;;;9.96;84.04004;93544.08;;;;
2019/11/05 00:21:20;;;;;;;0.8;0.8;;;;;;;9.96;84.04004;93544.08;;;;
2019/11/05 00:22:21;;;;;;;1.65;0.9;;;;;;;9.88;84.51563;93577.79;;;;
2019/11/05 00:23:22;;;;;;;1.65;0.9;;;;;;;9.88;84.51563;93577.79;;;;
2019/11/05 00:24:24;;;;;;;1.65;0.9;;;;;;;9.88;84.51563;93577.79;;;;
2019/11/05 00:25:25;;;;;;;1.65;0.9;;;;;;;9.88;84.51563;93577.79;;;;
2019/11/05 00:26:26;;;;;;;1.65;0.9;;;;;;;9.88;84.51563;93577.79;;;;
2019/11/05 00:27:27;;;;;;;1.65;0.9;;;;;;;9.88;84.51563;93577.79;;;;
2019/11/05 00:28:28;;;;;;;1.65;0.9;;;;;;;9.88;84.51563;93577.79;;;;
2019/11/05 00:29:29;;;;;;;1.65;0.9;;;;;;;9.88;84.51563;93577.79;;;;
2019/11/05 00:30:30;;;;;;;1.65;0.9;;;;;;;9.88;84.51563;93577.79;;;;
2019/11/05 00:31:31;;;;;;;1.65;0.9;;;;;;;9.88;84.51563;93577.79;;;;
2019/11/05 00:32:33;;;;;;;1.1;1;;;;;;;9.51;85.16699;93609.23;;;;
2019/11/05 00:33:34;;;;;;;1.1;1;;;;;;;9.51;85.16699;93609.23;;;;
2019/11/05 00:34:35;;;;;;;1.1;1;;;;;;;9.51;85.16699;93609.23;;;;
2019/11/05 00:35:36;;;;;;;1.1;1;;;;;;;9.51;85.16699;93609.23;;;;
2019/11/05 00:36:37;;;;;;;1.1;1;;;;;;;9.51;85.16699;93609.23;;;;
2019/11/05 00:37:38;;;;;;;1.1;1;;;;;;;9.51;85.16699;93609.23;;;;
2019/11/05 00:38:39;;;;;;;1.1;1;;;;;;;9.51;85.16699;93609.23;;;;
2019/11/05 00:39:40;;;;;;;1.1;1;;;;;;;9.51;85.16699;93609.23;;;;
2019/11/05 00:40:42;;;;;;;1.1;1;;;;;;;9.51;85.16699;93609.23;;;;
2019/11/05 00:41:43;;;;;;;1.1;1;;;;;;;9.51;85.16699;93609.23;;;;
2019/11/05 00:42:44;;;;;;;2.7;1.2;;;;;;;9.27;86.7793;93615.28;;;;
2019/11/05 00:43:45;;;;;;;2.7;1.2;;;;;;;9.27;86.7793;93615.28;;;;
2019/11/05 00:44:46;;;;;;;2.7;1.2;;;;;;;9.27;86.7793;93615.28;;;;
2019/11/05 00:45:47;;;;;;;2.7;1.2;;;;;;;9.27;86.7793;93615.28;;;;
2019/11/05 00:46:48;;;;;;;2.7;1.2;;;;;;;9.27;86.7793;93615.28;;;;
2019/11/05 00:47:49;;;;;;;2.7;1.2;;;;;;;9.27;86.7793;93615.28;;;;
2019/11/05 00:48:50;;;;;;;2.7;1.2;;;;;;;9.27;86.7793;93615.28;;;;
2019/11/05 00:49:52;;;;;;;2.7;1.2;;;;;;;9.27;86.7793;93615.28;;;;
2019/11/05 00:50:53;;;;;;;2.7;1.2;;;;;;;9.27;86.7793;93615.28;;;;
2019/11/05 00:51:54;;;;;;;2.7;1.2;;;;;;;9.27;86.7793;93615.28;;;;
2019/11/05 00:52:55;;;;;;;2.7;1.2;;;;;;;9.27;86.7793;93615.28;;;;
2019/11/05 00:53:56;;;;;;;1.35;1;;;;;;;9.01;88.23438;93626.7;;;;
2019/11/05 00:54:57;;;;;;;1.35;1;;;;;;;9.01;88.23438;93626.7;;;;
2019/11/05 00:55:58;;;;;;;1.35;1;;;;;;;9.01;88.23438;93626.7;;;;
2019/11/05 00:56:59;;;;;;;1.35;1;;;;;;;9.01;88.23438;93626.7;;;;
2019/11/05 00:58:01;;;;;;;1.35;1;;;;;;;9.01;88.23438;93626.7;;;;
2019/11/05 00:59:02;;;;;;;1.35;1;;;;;;;9.01;88.23438;93626.7;;;;
2019/11/05 01:00:03;;;;;;;1.35;1;;;;;;;9.01;88.23438;93626.7;;;;
2019/11/05 01:01:05;;;;;;;1.35;1;;;;;;;9.01;88.23438;93626.7;;;;
2019/11/05 01:02:06;;;;;;;1.35;1;;;;;;;9.01;88.23438;93626.7;;;;
2019/11/05 01:03:07;;;;;;;1.35;1;;;;;;;9.01;88.23438;93626.7;;;;
2019/11/05 01:04:08;;;;;;;1.3;1;;;;;;;8.83;89.80078;93602.42;;;;
2019/11/05 01:05:09;;;;;;;1.3;1;;;;;;;8.83;89.80078;93602.42;;;;
2019/11/05 01:06:10;;;;;;;1.3;1;;;;;;;8.83;89.80078;93602.42;;;;
2019/11/05 01:07:11;;;;;;;1.3;1;;;;;;;8.83;89.80078;93602.42;;;;
2019/11/05 01:08:13;;;;;;;1.3;1;;;;;;;8.83;89.80078;93602.42;;;;
2019/11/05 01:09:14;;;;;;;1.3;1;;;;;;;8.83;89.80078;93602.42;;;;
2019/11/05 01:10:15;;;;;;;1.3;1;;;;;;;8.83;89.80078;93602.42;;;;
2019/11/05 01:11:16;;;;;;;1.3;1;;;;;;;8.83;89.80078;93602.42;;;;
2019/11/05 01:12:17;;;;;;;1.3;1;;;;;;;8.83;89.80078;93602.42;;;;
2019/11/05 01:13:18;;;;;;;1.3;1;;;;;;;8.83;89.80078;93602.42;;;;
2019/11/05 01:14:19;;;;;;;1.3;1;;;;;;;8.83;89.80078;93602.42;;;;
2019/11/05 01:15:20;;;;;;;1.95;1.1;;;;;;;8.64;90.92773;93589.73;;;;
2019/11/05 01:16:21;;;;;;;1.95;1.1;;;;;;;8.64;90.92773;93589.73;;;;
2019/11/05 01:17:23;;;;;;;1.95;1.1;;;;;;;8.64;90.92773;93589.73;;;;
2019/11/05 01:18:24;;;;;;;1.95;1.1;;;;;;;8.64;90.92773;93589.73;;;;
2019/11/05 01:19:25;;;;;;;1.95;1.1;;;;;;;8.64;90.92773;93589.73;;;;
2019/11/05 01:20:26;;;;;;;1.95;1.1;;;;;;;8.64;90.92773;93589.73;;;;
2019/11/05 01:21:27;;;;;;;1.95;1.1;;;;;;;8.64;90.92773;93589.73;;;;
2019/11/05 01:22:28;;;;;;;1.95;1.1;;;;;;;8.64;90.92773;93589.73;;;;
2019/11/05 01:23:29;;;;;;;1.95;1.1;;;;;;;8.64;90.92773;93589.73;;;;
2019/11/05 01:24:31;;;;;;;1.95;1.1;;;;;;;8.64;90.92773;93589.73;;;;
2019/11/05 01:25:32;;;;;;;1.95;1.1;;;;;;;8.56;91.25977;93538.22;;;;
2019/11/05 01:26:33;;;;;;;1.95;1.1;;;;;;;8.56;91.25977;93538.22;;;;
2019/11/05 01:27:34;;;;;;;1.95;1.1;;;;;;;8.56;91.25977;93538.22;;;;
2019/11/05 01:28:35;;;;;;;1.95;1.1;;;;;;;8.56;91.25977;93538.22;;;;
2019/11/05 01:29:36;;;;;;;1.95;1.1;;;;;;;8.56;91.25977;93538.22;;;;
2019/11/05 01:30:37;;;;;;;1.95;1.1;;;;;;;8.56;91.25977;93538.22;;;;
2019/11/05 01:31:38;;;;;;;1.95;1.1;;;;;;;8.56;91.25977;93538.22;;;;
2019/11/05 01:32:39;;;;;;;1.95;1.1;;;;;;;8.56;91.25977;93538.22;;;;
2019/11/05 01:33:40;;;;;;;1.95;1.1;;;;;;;8.56;91.25977;93538.22;;;;
2019/11/05 01:34:42;;;;;;;1.95;1.1;;;;;;;8.56;91.25977;93538.22;;;;
2019/11/05 01:35:43;;;;;;;1.95;1.1;;;;;;;8.56;91.25977;93538.22;;;;
2019/11/05 01:36:44;;;;;;;2.25;1.2;;;;;;;8.45;91.53418;93539.26;;;;
2019/11/05 01:37:45;;;;;;;2.25;1.2;;;;;;;8.45;91.53418;93539.26;;;;
2019/11/05 01:38:46;;;;;;;2.25;1.2;;;;;;;8.45;91.53418;93539.26;;;;
2019/11/05 01:39:47;;;;;;;2.25;1.2;;;;;;;8.45;91.53418;93539.26;;;;
2019/11/05 01:40:48;;;;;;;2.25;1.2;;;;;;;8.45;91.53418;93539.26;;;;
2019/11/05 01:41:49;;;;;;;2.25;1.2;;;;;;;8.45;91.53418;93539.26;;;;
2019/11/05 01:42:50;;;;;;;2.25;1.2;;;;;;;8.45;91.53418;93539.26;;;;
2019/11/05 01:43:52;;;;;;;2.25;1.2;;;;;;;8.45;91.53418;93539.26;;;;
2019/11/05 01:44:53;;;;;;;2.25;1.2;;;;;;;8.45;91.53418;93539.26;;;;
2019/11/05 01:45:54;;;;;;;2.25;1.2;;;;;;;8.45;91.53418;93539.26;;;;
2019/11/05 01:46:55;;;;;;;2.3;1.05;;;;;;;8.41;92.02441;93538.06;;;;
2019/11/05 01:47:56;;;;;;;2.3;1.05;;;;;;;8.41;92.02441;93538.06;;;;
2019/11/05 01:48:57;;;;;;;2.3;1.05;;;;;;;8.41;92.02441;93538.06;;;;
2019/11/05 01:49:58;;;;;;;2.3;1.05;;;;;;;8.41;92.02441;93538.06;;;;
2019/11/05 01:50:59;;;;;;;2.3;1.05;;;;;;;8.41;92.02441;93538.06;;;;
2019/11/05 01:52:00;;;;;;;2.3;1.05;;;;;;;8.41;92.02441;93538.06;;;;
2019/11/05 01:53:02;;;;;;;2.3;1.05;;;;;;;8.41;92.02441;93538.06;;;;
2019/11/05 01:54:03;;;;;;;2.3;1.05;;;;;;;8.41;92.02441;93538.06;;;;
2019/11/05 01:55:04;;;;;;;2.3;1.05;;;;;;;8.41;92.02441;93538.06;;;;
2019/11/05 01:56:05;;;;;;;2.3;1.05;;;;;;;8.41;92.02441;93538.06;;;;
2019/11/05 01:57:06;;;;;;;1.55;1;;;;;;;8.36;92.58398;93558.74;;;;
2019/11/05 01:58:07;;;;;;;1.55;1;;;;;;;8.36;92.58398;93558.74;;;;
2019/11/05 01:59:08;;;;;;;1.55;1;;;;;;;8.36;92.58398;93558.74;;;;
2019/11/05 02:00:09;;;;;;;1.55;1;;;;;;;8.36;92.58398;93558.74;;;;
2019/11/05 02:01:11;;;;;;;1.55;1;;;;;;;8.36;92.58398;93558.74;;;;
2019/11/05 02:02:12;;;;;;;1.55;1;;;;;;;8.36;92.58398;93558.74;;;;
2019/11/05 02:03:13;;;;;;;1.55;1;;;;;;;8.36;92.58398;93558.74;;;;
2019/11/05 02:04:14;;;;;;;1.55;1;;;;;;;8.36;92.58398;93558.74;;;;
2019/11/05 02:05:15;;;;;;;1.55;1;;;;;;;8.36;92.58398;93558.74;;;;
2019/11/05 02:06:17;;;;;;;1.55;1;;;;;;;8.36;92.58398;93558.74;;;;
2019/11/05 02:07:18;;;;;;;1.55;1;;;;;;;8.36;92.58398;93558.74;;;;
2019/11/05 02:08:19;;;;;;;1.65;1;;;;;;;8.4;93.45215;93583.48;;;;
2019/11/05 02:09:20;;;;;;;1.65;1;;;;;;;8.4;93.45215;93583.48;;;;
2019/11/05 02:10:22;;;;;;;1.65;1;;;;;;;8.4;93.45215;93583.48;;;;
2019/11/05 02:11:23;;;;;;;1.65;1;;;;;;;8.4;93.45215;93583.48;;;;
2019/11/05 02:12:24;;;;;;;1.65;1;;;;;;;8.4;93.45215;93583.48;;;;
2019/11/05 02:13:25;;;;;;;1.65;1;;;;;;;8.4;93.45215;93583.48;;;;
2019/11/05 02:14:26;;;;;;;1.65;1;;;;;;;8.4;93.45215;93583.48;;;;
2019/11/05 02:15:27;;;;;;;1.65;1;;;;;;;8.4;93.45215;93583.48;;;;
2019/11/05 02:16:29;;;;;;;1.65;1;;;;;;;8.4;93.45215;93583.48;;;;
2019/11/05 02:17:30;;;;;;;1.65;1;;;;;;;8.4;93.45215;93583.48;;;;
2019/11/05 02:18:31;;;;;;;1.35;0.9;;;;;;;8.36;93.77246;93568.94;;;;
2019/11/05 02:19:33;;;;;;;1.35;0.9;;;;;;;8.36;93.77246;93568.94;;;;
2019/11/05 02:20:34;;;;;;;1.35;0.9;;;;;;;8.36;93.77246;93568.94;;;;
2019/11/05 02:21:35;;;;;;;1.35;0.9;;;;;;;8.36;93.77246;93568.94;;;;
2019/11/05 02:22:36;;;;;;;1.35;0.9;;;;;;;8.36;93.77246;93568.94;;;;
2019/11/05 02:23:37;;;;;;;1.35;0.9;;;;;;;8.36;93.77246;93568.94;;;;
2019/11/05 02:24:39;;;;;;;1.35;0.9;;;;;;;8.36;93.77246;93568.94;;;;
2019/11/05 02:25:40;;;;;;;1.35;0.9;;;;;;;8.36;93.77246;93568.94;;;;
2019/11/05 02:26:41;;;;;;;1.35;0.9;;;;;;;8.36;93.77246;93568.94;;;;
2019/11/05 02:27:42;;;;;;;1.35;0.9;;;;;;;8.36;93.77246;93568.94;;;;
2019/11/05 02:28:43;;;;;;;1.35;0.9;;;;;;;8.36;93.77246;93568.94;;;;
2019/11/05 02:29:44;;;;;;;1.3;0.85;;;;;;;8.39;94.46582;93576.09;;;;
2019/11/05 02:30:46;;;;;;;1.3;0.85;;;;;;;8.39;94.46582;93576.09;;;;
2019/11/05 02:31:47;;;;;;;1.3;0.85;;;;;;;8.39;94.46582;93576.09;;;;
2019/11/05 02:32:48;;;;;;;1.3;0.85;;;;;;;8.39;94.46582;93576.09;;;;
2019/11/05 02:33:49;;;;;;;1.3;0.85;;;;;;;8.39;94.46582;93576.09;;;;
2019/11/05 02:34:50;;;;;;;1.3;0.85;;;;;;;8.39;94.46582;93576.09;;;;
2019/11/05 02:35:51;;;;;;;1.3;0.85;;;;;;;8.39;94.46582;93576.09;;;;
2019/11/05 02:36:52;;;;;;;1.3;0.85;;;;;;;8.39;94.46582;93576.09;;;;
2019/11/05 02:37:54;;;;;;;1.3;0.85;;;;;;;8.39;94.46582;93576.09;;;;
2019/11/05 02:38:55;;;;;;;1.3;0.85;;;;;;;8.39;94.46582;93576.09;;;;
2019/11/05 02:39:56;;;;;;;1.4;1;;;;;;;8.34;94.93164;93551.88;;;;
2019/11/05 02:40:57;;;;;;;1.4;1;;;;;;;8.34;94.93164;93551.88;;;;
2019/11/05 02:41:58;;;;;;;1.4;1;;;;;;;8.34;94.93164;93551.88;;;;
2019/11/05 02:43:00;;;;;;;1.4;1;;;;;;;8.34;94.93164;93551.88;;;;
2019/11/05 02:44:01;;;;;;;1.4;1;;;;;;;8.34;94.93164;93551.88;;;;
2019/11/05 02:45:02;;;;;;;1.4;1;;;;;;;8.34;94.93164;93551.88;;;;
2019/11/05 02:46:04;;;;;;;1.4;1;;;;;;;8.34;94.93164;93551.88;;;;
2019/11/05 02:47:05;;;;;;;1.4;1;;;;;;;8.34;94.93164;93551.88;;;;
2019/11/05 02:48:06;;;;;;;1.4;1;;;;;;;8.34;94.93164;93551.88;;;;
2019/11/05 02:49:07;;;;;;;1.4;1;;;;;;;8.34;94.93164;93551.88;;;;
2019/11/05 02:50:09;;;;;;;1.1;0.9;;;;;;;8.34;95.21582;93525.51;;;;
2019/11/05 02:51:10;;;;;;;1.1;0.9;;;;;;;8.34;95.21582;93525.51;;;;
2019/11/05 02:52:11;;;;;;;1.1;0.9;;;;;;;8.34;95.21582;93525.51;;;;
2019/11/05 02:53:13;;;;;;;1.1;0.9;;;;;;;8.34;95.21582;93525.51;;;;
2019/11/05 02:54:14;;;;;;;1.1;0.9;;;;;;;8.34;95.21582;93525.51;;;;
2019/11/05 02:55:15;;;;;;;1.1;0.9;;;;;;;8.34;95.21582;93525.51;;;;
2019/11/05 02:56:16;;;;;;;1.1;0.9;;;;;;;8.34;95.21582;93525.51;;;;
2019/11/05 02:57:17;;;;;;;1.1;0.9;;;;;;;8.34;95.21582;93525.51;;;;
2019/11/05 02:58:19;;;;;;;1.1;0.9;;;;;;;8.34;95.21582;93525.51;;;;
2019/11/05 02:59:20;;;;;;;1.1;0.9;;;;;;;8.34;95.21582;93525.51;;;;
2019/11/05 03:00:21;;;;;;;1.1;0.9;;;;;;;8.34;95.21582;93525.51;;;;
2019/11/05 03:01:22;;;;;;;2.1;0.9;;;;;;;8.25;95.41895;93506.41;;;;
2019/11/05 03:02:23;;;;;;;2.1;0.9;;;;;;;8.25;95.41895;93506.41;;;;
2019/11/05 03:03:24;;;;;;;2.1;0.9;;;;;;;8.25;95.41895;93506.41;;;;
2019/11/05 03:04:26;;;;;;;2.1;0.9;;;;;;;8.25;95.41895;93506.41;;;;
2019/11/05 03:05:27;;;;;;;2.1;0.9;;;;;;;8.25;95.41895;93506.41;;;;
2019/11/05 03:06:28;;;;;;;2.1;0.9;;;;;;;8.25;95.41895;93506.41;;;;
2019/11/05 03:07:29;;;;;;;2.1;0.9;;;;;;;8.25;95.41895;93506.41;;;;
2019/11/05 03:08:30;;;;;;;2.1;0.9;;;;;;;8.25;95.41895;93506.41;;;;
2019/11/05 03:09:32;;;;;;;2.1;0.9;;;;;;;8.25;95.41895;93506.41;;;;
2019/11/05 03:10:33;;;;;;;2.1;0.9;;;;;;;8.25;95.41895;93506.41;;;;
2019/11/05 03:11:34;;;;;;;1.7;1.1;;;;;;;8.19;95.5332;93517.25;;;;
2019/11/05 03:12:35;;;;;;;1.7;1.1;;;;;;;8.19;95.5332;93517.25;;;;
2019/11/05 03:13:36;;;;;;;1.7;1.1;;;;;;;8.19;95.5332;93517.25;;;;
2019/11/05 03:14:38;;;;;;;1.7;1.1;;;;;;;8.19;95.5332;93517.25;;;;
2019/11/05 03:15:39;;;;;;;1.7;1.1;;;;;;;8.19;95.5332;93517.25;;;;
2019/11/05 03:16:40;;;;;;;1.7;1.1;;;;;;;8.19;95.5332;93517.25;;;;
2019/11/05 03:17:41;;;;;;;1.7;1.1;;;;;;;8.19;95.5332;93517.25;;;;
2019/11/05 03:18:42;;;;;;;1.7;1.1;;;;;;;8.19;95.5332;93517.25;;;;
2019/11/05 03:19:43;;;;;;;1.7;1.1;;;;;;;8.19;95.5332;93517.25;;;;
2019/11/05 03:20:44;;;;;;;1.7;1.1;;;;;;;8.19;95.5332;93517.25;;;;
2019/11/05 03:21:46;;;;;;;1.7;1.1;;;;;;;8.19;95.5332;93517.25;;;;
2019/11/05 03:22:47;;;;;;;1.45;1;;;;;;;8.12;95.83398;93502.84;;;;
2019/11/05 03:23:48;;;;;;;1.45;1;;;;;;;8.12;95.83398;93502.84;;;;
2019/11/05 03:24:49;;;;;;;1.45;1;;;;;;;8.12;95.83398;93502.84;;;;
2019/11/05 03:25:50;;;;;;;1.45;1;;;;;;;8.12;95.83398;93502.84;;;;
2019/11/05 03:26:52;;;;;;;1.45;1;;;;;;;8.12;95.83398;93502.84;;;;
2019/11/05 03:27:53;;;;;;;1.45;1;;;;;;;8.12;95.83398;93502.84;;;;
2019/11/05 03:28:54;;;;;;;1.45;1;;;;;;;8.12;95.83398;93502.84;;;;
2019/11/05 03:29:55;;;;;;;1.45;1;;;;;;;8.12;95.83398;93502.84;;;;
2019/11/05 03:30:56;;;;;;;1.45;1;;;;;;;8.12;95.83398;93502.84;;;;
2019/11/05 03:31:57;;;;;;;1.45;1;;;;;;;8.12;95.83398;93502.84;;;;
2019/11/05 03:32:58;;;;;;;2.95;1.25;;;;;;;8.16;95.85254;93521.94;;;;
2019/11/05 03:34:00;;;;;;;2.95;1.25;;;;;;;8.16;95.85254;93521.94;;;;
2019/11/05 03:35:01;;;;;;;2.95;1.25;;;;;;;8.16;95.85254;93521.94;;;;
2019/11/05 03:36:02;;;;;;;2.95;1.25;;;;;;;8.16;95.85254;93521.94;;;;
2019/11/05 03:37:03;;;;;;;2.95;1.25;;;;;;;8.16;95.85254;93521.94;;;;
2019/11/05 03:38:04;;;;;;;2.95;1.25;;;;;;;8.16;95.85254;93521.94;;;;
2019/11/05 03:39:05;;;;;;;2.95;1.25;;;;;;;8.16;95.85254;93521.94;;;;
2019/11/05 03:40:07;;;;;;;2.95;1.25;;;;;;;8.16;95.85254;93521.94;;;;
2019/11/05 03:41:08;;;;;;;2.95;1.25;;;;;;;8.16;95.85254;93521.94;;;;
2019/11/05 03:42:10;;;;;;;2.95;1.25;;;;;;;8.16;95.85254;93521.94;;;;
2019/11/05 03:43:12;;;;;;;2.2;1;;;;;;;8.14;95.88086;93527.98;;;;
2019/11/05 03:44:14;;;;;;;2.2;1;;;;;;;8.14;95.88086;93527.98;;;;
2019/11/05 03:45:16;;;;;;;2.2;1;;;;;;;8.14;95.88086;93527.98;;;;
2019/11/05 03:46:18;;;;;;;2.2;1;;;;;;;8.14;95.88086;93527.98;;;;
2019/11/05 03:47:22;;;;;;;2.2;1;;;;;;;8.14;95.88086;93527.98;;;;
2019/11/05 03:48:25;;;;;;;2.2;1;;;;;;;8.14;95.88086;93527.98;;;;
2019/11/05 03:49:32;;;;;;;2.2;1;;;;;;;8.14;95.88086;93527.98;;;;
2019/11/05 03:50:40;;;;;;;2.2;1;;;;;;;8.14;95.88086;93527.98;;;;
2019/11/05 03:51:42;;;;;;;2.2;1;;;;;;;8.14;95.88086;93527.98;;;;
2019/11/05 03:52:43;;;;;;;2.2;1;;;;;;;8.14;95.88086;93527.98;;;;
2019/11/05 03:53:44;;;;;;;2;1.1;;;;;;;8.2;96.11719;93550.73;;;;
2019/11/05 03:54:47;;;;;;;2;1.1;;;;;;;8.2;96.11719;93550.73;;;;
2019/11/05 03:55:50;;;;;;;2;1.1;;;;;;;8.2;96.11719;93550.73;;;;
2019/11/05 03:56:56;;;;;;;2;1.1;;;;;;;8.2;96.11719;93550.73;;;;
2019/11/05 03:57:57;;;;;;;2;1.1;;;;;;;8.2;96.11719;93550.73;;;;
2019/11/05 03:58:58;;;;;;;2;1.1;;;;;;;8.2;96.11719;93550.73;;;;
2019/11/05 03:59:59;;;;;;;2;1.1;;;;;;;8.2;96.11719;93550.73;;;;
2019/11/05 04:01:00;;;;;;;2;1.1;;;;;;;8.2;96.11719;93550.73;;;;
2019/11/05 04:02:02;;;;;;;2;1.1;;;;;;;8.2;96.11719;93550.73;;;;
2019/11/05 04:03:03;;;;;;;2;1.1;;;;;;;8.2;96.11719;93550.73;;;;
2019/11/05 04:04:05;;;;;;;2;1.1;;;;;;;8.2;96.11719;93550.73;;;;
2019/11/05 04:05:06;;;;;;;1.6;1.2;;;;;;;8.18;96.7998;93556.91;;;;
2019/11/05 04:06:07;;;;;;;1.6;1.2;;;;;;;8.18;96.7998;93556.91;;;;
2019/11/05 04:07:09;;;;;;;1.6;1.2;;;;;;;8.18;96.7998;93556.91;;;;
2019/11/05 04:08:10;;;;;;;1.6;1.2;;;;;;;8.18;96.7998;93556.91;;;;
2019/11/05 04:09:11;;;;;;;1.6;1.2;;;;;;;8.18;96.7998;93556.91;;;;
2019/11/05 04:10:12;;;;;;;1.6;1.2;;;;;;;8.18;96.7998;93556.91;;;;
2019/11/05 04:11:13;;;;;;;1.6;1.2;;;;;;;8.18;96.7998;93556.91;;;;
2019/11/05 04:12:15;;;;;;;1.6;1.2;;;;;;;8.18;96.7998;93556.91;;;;
2019/11/05 04:13:16;;;;;;;1.6;1.2;;;;;;;8.18;96.7998;93556.91;;;;
2019/11/05 04:14:17;;;;;;;1.6;1.2;;;;;;;8.18;96.7998;93556.91;;;;
2019/11/05 04:15:18;;;;;;;1.2;1;;;;;;;8.21;96.73047;93551.51;;;;
2019/11/05 04:16:19;;;;;;;1.2;1;;;;;;;8.21;96.73047;93551.51;;;;
2019/11/05 04:17:20;;;;;;;1.2;1;;;;;;;8.21;96.73047;93551.51;;;;
2019/11/05 04:18:22;;;;;;;1.2;1;;;;;;;8.21;96.73047;93551.51;;;;
2019/11/05 04:19:23;;;;;;;1.2;1;;;;;;;8.21;96.73047;93551.51;;;;
2019/11/05 04:20:24;;;;;;;1.2;1;;;;;;;8.21;96.73047;93551.51;;;;
2019/11/05 04:21:25;;;;;;;1.2;1;;;;;;;8.21;96.73047;93551.51;;;;
2019/11/05 04:22:26;;;;;;;1.2;1;;;;;;;8.21;96.73047;93551.51;;;;
2019/11/05 04:23:27;;;;;;;1.2;1;;;;;;;8.21;96.73047;93551.51;;;;
2019/11/05 04:24:28;;;;;;;1.2;1;;;;;;;8.21;96.73047;93551.51;;;;
2019/11/05 04:25:30;;;;;;;1.2;1;;;;;;;8.21;96.73047;93551.51;;;;
2019/11/05 04:26:31;;;;;;;2.8;1.25;;;;;;;8.17;96.96484;93555.83;;;;
2019/11/05 04:27:37;;;;;;;2.8;1.25;;;;;;;8.17;96.96484;93555.83;;;;
2019/11/05 04:28:39;;;;;;;2.8;1.25;;;;;;;8.17;96.96484;93555.83;;;;
2019/11/05 04:29:40;;;;;;;2.8;1.25;;;;;;;8.17;96.96484;93555.83;;;;
2019/11/05 04:30:41;;;;;;;2.8;1.25;;;;;;;8.17;96.96484;93555.83;;;;
2019/11/05 04:31:43;;;;;;;2.8;1.25;;;;;;;8.17;96.96484;93555.83;;;;
2019/11/05 04:32:44;;;;;;;2.8;1.25;;;;;;;8.17;96.96484;93555.83;;;;
2019/11/05 04:33:45;;;;;;;2.8;1.25;;;;;;;8.17;96.96484;93555.83;;;;
2019/11/05 04:34:46;;;;;;;2.8;1.25;;;;;;;8.17;96.96484;93555.83;;;;
2019/11/05 04:35:47;;;;;;;2.8;1.25;;;;;;;8.17;96.96484;93555.83;;;;
2019/11/05 04:36:48;;;;;;;2.05;1.2;;;;;;;8.17;97.33496;93553.52;;;;
2019/11/05 04:37:49;;;;;;;2.05;1.2;;;;;;;8.17;97.33496;93553.52;;;;
2019/11/05 04:38:51;;;;;;;2.05;1.2;;;;;;;8.17;97.33496;93553.52;;;;
2019/11/05 04:39:52;;;;;;;2.05;1.2;;;;;;;8.17;97.33496;93553.52;;;;
2019/11/05 04:40:53;;;;;;;2.05;1.2;;;;;;;8.17;97.33496;93553.52;;;;
2019/11/05 04:41:54;;;;;;;2.05;1.2;;;;;;;8.17;97.33496;93553.52;;;;
2019/11/05 04:42:55;;;;;;;2.05;1.2;;;;;;;8.17;97.33496;93553.52;;;;
2019/11/05 04:43:56;;;;;;;2.05;1.2;;;;;;;8.17;97.33496;93553.52;;;;
2019/11/05 04:44:57;;;;;;;2.05;1.2;;;;;;;8.17;97.33496;93553.52;;;;
2019/11/05 04:45:58;;;;;;;2.05;1.2;;;;;;;8.17;97.33496;93553.52;;;;
2019/11/05 04:47:00;;;;;;;1.25;1.05;;;;;;;8.1;97.94336;93536.83;;;;
2019/11/05 04:48:01;;;;;;;1.25;1.05;;;;;;;8.1;97.94336;93536.83;;;;
2019/11/05 04:49:02;;;;;;;1.25;1.05;;;;;;;8.1;97.94336;93536.83;;;;
2019/11/05 04:50:03;;;;;;;1.25;1.05;;;;;;;8.1;97.94336;93536.83;;;;
2019/11/05 04:51:04;;;;;;;1.25;1.05;;;;;;;8.1;97.94336;93536.83;;;;
2019/11/05 04:52:05;;;;;;;1.25;1.05;;;;;;;8.1;97.94336;93536.83;;;;
2019/11/05 04:53:06;;;;;;;1.25;1.05;;;;;;;8.1;97.94336;93536.83;;;;
2019/11/05 04:54:08;;;;;;;1.25;1.05;;;;;;;8.1;97.94336;93536.83;;;;
2019/11/05 04:55:09;;;;;;;1.25;1.05;;;;;;;8.1;97.94336;93536.83;;;;
2019/11/05 04:56:10;;;;;;;1.25;1.05;;;;;;;8.1;97.94336;93536.83;;;;
2019/11/05 04:57:11;;;;;;;1.25;1.05;;;;;;;8.1;97.94336;93536.83;;;;
2019/11/05 04:58:12;;;;;;;3.1;1.4;;;;;;;8.07;97.97949;93526.09;;;;
2019/11/05 04:59:13;;;;;;;3.1;1.4;;;;;;;8.07;97.97949;93526.09;;;;
2019/11/05 05:00:14;;;;;;;3.1;1.4;;;;;;;8.07;97.97949;93526.09;;;;
2019/11/05 05:01:16;;;;;;;3.1;1.4;;;;;;;8.07;97.97949;93526.09;;;;
2019/11/05 05:02:17;;;;;;;3.1;1.4;;;;;;;8.07;97.97949;93526.09;;;;
2019/11/05 05:03:18;;;;;;;3.1;1.4;;;;;;;8.07;97.97949;93526.09;;;;
2019/11/05 05:04:19;;;;;;;3.1;1.4;;;;;;;8.07;97.97949;93526.09;;;;
2019/11/05 05:05:20;;;;;;;3.1;1.4;;;;;;;8.07;97.97949;93526.09;;;;
2019/11/05 05:06:21;;;;;;;3.1;1.4;;;;;;;8.07;97.97949;93526.09;;;;
2019/11/05 05:07:22;;;;;;;3.1;1.4;;;;;;;8.07;97.97949;93526.09;;;;
2019/11/05 05:08:23;;;;;;;5.35;2.5;;;;;;;8;98.10156;93522.83;;;;
2019/11/05 05:09:24;;;;;;;5.35;2.5;;;;;;;8;98.10156;93522.83;;;;
2019/11/05 05:10:26;;;;;;;5.35;2.5;;;;;;;8;98.10156;93522.83;;;;
2019/11/05 05:11:27;;;;;;;5.35;2.5;;;;;;;8;98.10156;93522.83;;;;
2019/11/05 05:12:28;;;;;;;5.35;2.5;;;;;;;8;98.10156;93522.83;;;;
2019/11/05 05:13:29;;;;;;;5.35;2.5;;;;;;;8;98.10156;93522.83;;;;
2019/11/05 05:14:30;;;;;;;5.35;2.5;;;;;;;8;98.10156;93522.83;;;;
2019/11/05 05:15:31;;;;;;;5.35;2.5;;;;;;;8;98.10156;93522.83;;;;
2019/11/05 05:16:32;;;;;;;5.35;2.5;;;;;;;8;98.10156;93522.83;;;;
2019/11/05 05:17:33;;;;;;;5.35;2.5;;;;;;;8;98.10156;93522.83;;;;
2019/11/05 05:18:35;;;;;;;5.35;2.5;;;;;;;8;98.10156;93522.83;;;;
2019/11/05 05:19:36;;;;;;;2.85;1.3;;;;;;;8;98.72266;93492.05;;;;
2019/11/05 05:20:37;;;;;;;2.85;1.3;;;;;;;8;98.72266;93492.05;;;;
2019/11/05 05:21:38;;;;;;;2.85;1.3;;;;;;;8;98.72266;93492.05;;;;
2019/11/05 05:22:39;;;;;;;2.85;1.3;;;;;;;8;98.72266;93492.05;;;;
2019/11/05 05:23:40;;;;;;;2.85;1.3;;;;;;;8;98.72266;93492.05;;;;
2019/11/05 05:24:41;;;;;;;2.85;1.3;;;;;;;8;98.72266;93492.05;;;;
2019/11/05 05:25:43;;;;;;;2.85;1.3;;;;;;;8;98.72266;93492.05;;;;
2019/11/05 05:26:44;;;;;;;2.85;1.3;;;;;;;8;98.72266;93492.05;;;;
2019/11/05 05:27:45;;;;;;;2.85;1.3;;;;;;;8;98.72266;93492.05;;;;
2019/11/05 05:28:46;;;;;;;2.85;1.3;;;;;;;8;98.72266;93492.05;;;;
2019/11/05 05:29:47;;;;;;;2.7;1.2;;;;;;;7.89;98.63574;93504.24;;;;
2019/11/05 05:30:48;;;;;;;2.7;1.2;;;;;;;7.89;98.63574;93504.24;;;;
2019/11/05 05:31:49;;;;;;;2.7;1.2;;;;;;;7.89;98.63574;93504.24;;;;
2019/11/05 05:32:50;;;;;;;2.7;1.2;;;;;;;7.89;98.63574;93504.24;;;;
2019/11/05 05:33:51;;;;;;;2.7;1.2;;;;;;;7.89;98.63574;93504.24;;;;
2019/11/05 05:34:53;;;;;;;2.7;1.2;;;;;;;7.89;98.63574;93504.24;;;;
2019/11/05 05:35:54;;;;;;;2.7;1.2;;;;;;;7.89;98.63574;93504.24;;;;
2019/11/05 05:36:55;;;;;;;2.7;1.2;;;;;;;7.89;98.63574;93504.24;;;;
2019/11/05 05:37:56;;;;;;;2.7;1.2;;;;;;;7.89;98.63574;93504.24;;;;
2019/11/05 05:38:57;;;;;;;2.7;1.2;;;;;;;7.89;98.63574;93504.24;;;;
2019/11/05 05:39:58;;;;;;;4.25;1.25;;;;;;;7.84;98.89746;93530.16;;;;
2019/11/05 05:40:59;;;;;;;4.25;1.25;;;;;;;7.84;98.89746;93530.16;;;;
2019/11/05 05:42:01;;;;;;;4.25;1.25;;;;;;;7.84;98.89746;93530.16;;;;
2019/11/05 05:43:02;;;;;;;4.25;1.25;;;;;;;7.84;98.89746;93530.16;;;;
2019/11/05 05:44:03;;;;;;;4.25;1.25;;;;;;;7.84;98.89746;93530.16;;;;
2019/11/05 05:45:04;;;;;;;4.25;1.25;;;;;;;7.84;98.89746;93530.16;;;;
2019/11/05 05:46:05;;;;;;;4.25;1.25;;;;;;;7.84;98.89746;93530.16;;;;
2019/11/05 05:47:06;;;;;;;4.25;1.25;;;;;;;7.84;98.89746;93530.16;;;;
2019/11/05 05:48:08;;;;;;;4.25;1.25;;;;;;;7.84;98.89746;93530.16;;;;
2019/11/05 05:49:09;;;;;;;4.25;1.25;;;;;;;7.84;98.89746;93530.16;;;;
2019/11/05 05:50:10;;;;;;;4.25;1.25;;;;;;;7.84;98.89746;93530.16;;;;
2019/11/05 05:51:11;;;;;;;4.250001;1.7;;;;;;;7.75;99.0791;93532.12;;;;
2019/11/05 05:52:12;;;;;;;4.250001;1.7;;;;;;;7.75;99.0791;93532.12;;;;
2019/11/05 05:53:13;;;;;;;4.250001;1.7;;;;;;;7.75;99.0791;93532.12;;;;
2019/11/05 05:54:14;;;;;;;4.250001;1.7;;;;;;;7.75;99.0791;93532.12;;;;
2019/11/05 05:55:15;;;;;;;4.250001;1.7;;;;;;;7.75;99.0791;93532.12;;;;
2019/11/05 05:56:17;;;;;;;4.250001;1.7;;;;;;;7.75;99.0791;93532.12;;;;
2019/11/05 05:57:18;;;;;;;4.250001;1.7;;;;;;;7.75;99.0791;93532.12;;;;
2019/11/05 05:58:19;;;;;;;4.250001;1.7;;;;;;;7.75;99.0791;93532.12;;;;
2019/11/05 05:59:20;;;;;;;4.250001;1.7;;;;;;;7.75;99.0791;93532.12;;;;
2019/11/05 06:00:21;;;;;;;4.250001;1.7;;;;;;;7.75;99.0791;93532.12;;;;
2019/11/05 06:01:22;;;;;;;3.750001;1.5;;;;;;;7.76;99.50098;93522.58;;;;
2019/11/05 06:02:23;;;;;;;3.750001;1.5;;;;;;;7.76;99.50098;93522.58;;;;